Overview Statistics Trail Chart Weather Telemetry Raw packets
 

This is the latest recevied weather packets stored in our database for station/object IU7URP-17. If no packets are shown the sender has not sent any weather packets the latest 10 day(s).

<< 1 2 3 4 5 6 >>
Time Temp. Humidity Pressure Rain* Wind** Luminosity Snow
1788604319 35.56° C 32% 1019 hPa - - - -
1788601911 35° C 32% 1019.4 hPa - - - -
1788600706 33.33° C 38% 1019.7 hPa - - - -
1788599503 33.89° C 39% 1019.8 hPa - - - -
1788598298 33.89° C 41% 1019.9 hPa - - - -
1788597094 32.22° C 48% 1020 hPa - - - -
1788595890 31.67° C 50% 1020 hPa - - - -
1788594686 30.56° C 55% 1020 hPa - - - -
1788593482 30° C 60% 1020 hPa - - - -
1788592278 28.33° C 66% 1020 hPa - - - -
1788589870 27.22° C 66% 1020.1 hPa - - - -
1788588666 26.11° C 68% 1020.3 hPa - - - -
1788587462 24.44° C 72% 1020.4 hPa - - - -
1788586258 23.33° C 76% 1020.4 hPa - - - -
1788583850 21.11° C 85% 1020.3 hPa - - - -
1788582645 21.11° C 88% 1020.1 hPa - - - -
1788581442 21.11° C 89% 1019.9 hPa - - - -
1788580237 21.11° C 88% 1019.7 hPa - - - -
1788579033 21.11° C 88% 1019.6 hPa - - - -
1788577815 21.11° C 87% 1019.6 hPa - - - -
1788576611 21.11° C 87% 1019.5 hPa - - - -
1788575407 21.67° C 86% 1019.6 hPa - - - -
1788574203 21.67° C 86% 1019.6 hPa - - - -
1788563367 23.33° C 79% 1019.6 hPa - - - -
1788562163 23.33° C 77% 1019.6 hPa - - - -

* Rain since midnight (hover to see other rain measurements)
** Current wind speed in m/s (hover to see current wind gust speed)